Time;durP1;ratioP1;P1;durP2;ratioP2;P2;SDS_P1;SDS_P2;PMS_P1;PMS_P2;Temp;Humidity;BMP_temperature;BMP_pressure;BME280_temperature;BME280_humidity;BME280_pressure;Samples;Min_cycle;Max_cycle;Signal;HPM_P1;HPM_P2
2022/08/26 00:01:15;;;;;;;9.70;9.00;;;20.60;99.90;;;;;;5018629;28;20460;-86
2022/08/26 00:03:42;;;;;;;7.87;7.27;;;20.70;99.90;;;;;;5019133;28;20464;-87
2022/08/26 00:06:09;;;;;;;6.60;6.10;;;20.70;99.90;;;;;;5018291;28;20466;-86
2022/08/26 00:08:36;;;;;;;7.87;7.27;;;20.70;99.90;;;;;;5018169;28;20453;-86
2022/08/26 00:11:05;;;;;;;9.00;6.50;;;20.70;99.90;;;;;;5018331;28;20451;-86
2022/08/26 00:13:31;;;;;;;7.53;6.93;;;20.70;99.90;;;;;;5017937;28;20864;-86
2022/08/26 00:15:58;;;;;;;7.97;7.43;;;20.40;99.90;;;;;;5017963;28;20863;-86
2022/08/26 00:18:26;;;;;;;8.53;7.67;;;20.40;99.90;;;;;;5018010;28;20459;-86
2022/08/26 00:20:53;;;;;;;7.83;7.27;;;20.40;99.90;;;;;;5018118;28;20502;-87
2022/08/26 00:23:21;;;;;;;8.50;7.80;;;20.40;99.90;;;;;;5017849;28;20455;-86
2022/08/26 00:25:47;;;;;;;8.37;7.77;;;20.30;99.90;;;;;;5018391;28;20541;-86
2022/08/26 00:28:16;;;;;;;8.03;7.43;;;20.30;99.90;;;;;;5021512;28;20454;-86
2022/08/26 00:30:46;;;;;;;8.20;7.43;;;20.20;99.90;;;;;;5028092;28;20454;-86
2022/08/26 00:33:15;;;;;;;7.33;6.83;;;20.20;99.90;;;;;;5027980;28;20478;-86
2022/08/26 00:35:41;;;;;;;7.77;7.17;;;20.10;99.90;;;;;;5028292;28;20470;-85
2022/08/26 00:38:09;;;;;;;7.57;7.07;;;20.10;99.90;;;;;;5026040;28;20461;-86
2022/08/26 00:40:39;;;;;;;8.10;7.50;;;20.00;99.90;;;;;;5023992;28;20495;-86
2022/08/26 00:43:07;;;;;;;7.90;7.37;;;20.00;99.90;;;;;;5023286;28;21001;-86
2022/08/26 00:45:43;;;;;;;8.40;7.60;;;20.00;99.90;;;;;;5017074;28;21008;-87
2022/08/26 00:48:11;;;;;;;7.77;7.17;;;19.90;99.90;;;;;;5016909;28;20457;-86
2022/08/26 00:50:41;;;;;;;8.37;7.73;;;19.90;99.90;;;;;;5017456;28;20457;-86
2022/08/26 00:53:20;;;;;;;7.40;6.90;;;19.90;99.90;;;;;;5018538;28;20457;-86
2022/08/26 00:55:50;;;;;;;7.80;7.13;;;19.90;99.90;;;;;;5017482;28;20475;-86
2022/08/26 00:58:16;;;;;;;6.90;6.43;;;19.90;99.90;;;;;;5017611;28;20460;-85
2022/08/26 01:00:44;;;;;;;7.17;6.67;;;19.80;99.90;;;;;;5017660;28;20490;-86
2022/08/26 01:03:12;;;;;;;7.70;7.10;;;19.90;99.90;;;;;;5016870;28;20468;-86
2022/08/26 01:05:39;;;;;;;7.70;7.20;;;19.90;99.90;;;;;;5017214;28;20561;-86
2022/08/26 01:08:06;;;;;;;8.20;7.60;;;19.90;99.90;;;;;;5017014;28;20465;-86
2022/08/26 01:10:33;;;;;;;7.87;7.27;;;19.90;99.90;;;;;;5017361;28;20932;-86
2022/08/26 01:13:02;;;;;;;8.60;7.93;;;19.90;99.90;;;;;;5021498;28;20451;-86
2022/08/26 01:15:33;;;;;;;7.43;6.93;;;20.00;99.90;;;;;;5030221;28;20486;-86
2022/08/26 01:18:02;;;;;;;7.80;7.20;;;19.90;99.90;;;;;;5031029;28;20446;-86
2022/08/26 01:20:36;;;;;;;8.93;6.37;;;19.90;99.90;;;;;;5030673;28;21061;-86
2022/08/26 01:23:06;;;;;;;7.40;6.90;;;19.90;99.90;;;;;;5030986;28;20449;-86
2022/08/26 01:25:37;;;;;;;7.43;6.93;;;19.90;99.90;;;;;;5029109;28;20481;-86
2022/08/26 01:28:07;;;;;;;7.47;6.90;;;19.90;99.90;;;;;;5020975;28;20457;-86
2022/08/26 01:30:38;;;;;;;7.80;7.10;;;19.90;99.90;;;;;;5021689;28;20467;-86
2022/08/26 01:33:10;;;;;;;8.23;7.63;;;19.90;99.90;;;;;;5021304;28;20939;-86
2022/08/26 01:35:38;;;;;;;6.77;6.17;;;19.90;99.90;;;;;;5021224;28;21031;-86
2022/08/26 01:38:06;;;;;;;7.93;7.33;;;19.80;99.90;;;;;;5021195;28;20456;-86
2022/08/26 01:40:36;;;;;;;7.67;7.17;;;19.80;99.90;;;;;;5020541;28;20857;-86
2022/08/26 01:43:05;;;;;;;8.93;8.23;;;19.80;99.90;;;;;;5021077;28;20454;-86
2022/08/26 01:45:35;;;;;;;7.40;6.80;;;19.80;99.90;;;;;;5030905;28;20473;-84
2022/08/26 01:48:07;;;;;;;7.83;7.17;;;19.80;99.90;;;;;;5029870;28;20453;-86
2022/08/26 01:50:35;;;;;;;7.83;7.23;;;19.80;99.90;;;;;;5021380;28;20449;-86
2022/08/26 01:53:07;;;;;;;8.80;8.00;;;19.70;99.90;;;;;;5020871;28;20464;-86
2022/08/26 01:55:38;;;;;;;8.10;7.57;;;19.70;99.90;;;;;;5021420;28;20485;-85
2022/08/26 01:58:09;;;;;;;9.10;8.40;;;19.40;99.90;;;;;;5020809;28;20452;-86
2022/08/26 02:00:37;;;;;;;8.73;7.93;;;19.40;99.90;;;;;;5026696;28;20512;-86
2022/08/26 02:03:20;;;;;;;8.17;7.53;;;19.50;99.90;;;;;;5026814;28;20449;-86
2022/08/26 02:05:52;;;;;;;8.23;7.53;;;19.40;99.90;;;;;;5026720;28;20895;-86
2022/08/26 02:08:24;;;;;;;8.30;7.80;;;19.40;99.90;;;;;;5026383;28;20455;-86
2022/08/26 02:10:51;;;;;;;8.40;7.70;;;19.40;99.90;;;;;;5027005;28;20456;-86
2022/08/26 02:13:18;;;;;;;7.57;6.90;;;19.30;99.90;;;;;;5026920;28;20450;-86
2022/08/26 02:15:45;;;;;;;9.37;8.63;;;19.30;99.90;;;;;;5026979;28;20469;-86
2022/08/26 02:18:12;;;;;;;7.67;7.17;;;19.30;99.90;;;;;;5026739;28;20457;-86
2022/08/26 02:20:39;;;;;;;7.97;7.30;;;19.30;99.90;;;;;;5026832;28;20496;-86
2022/08/26 02:23:06;;;;;;;7.50;7.00;;;19.30;99.90;;;;;;5026781;28;20455;-85
2022/08/26 02:25:44;;;;;;;8.17;7.57;;;19.30;99.90;;;;;;5024694;28;20474;-86
2022/08/26 02:28:12;;;;;;;9.47;8.83;;;19.30;99.90;;;;;;5022505;28;20454;-86
2022/08/26 02:30:40;;;;;;;7.57;6.87;;;19.30;99.90;;;;;;5019323;28;20454;-85
2022/08/26 02:33:07;;;;;;;7.43;6.90;;;19.30;99.90;;;;;;5019338;28;20940;-86
2022/08/26 02:35:35;;;;;;;8.40;7.80;;;19.30;99.90;;;;;;5019371;28;20466;-86
2022/08/26 02:38:04;;;;;;;8.63;8.03;;;19.30;99.90;;;;;;5019196;28;20452;-86
2022/08/26 02:40:33;;;;;;;7.60;7.00;;;19.30;99.90;;;;;;5027176;28;20920;-86
2022/08/26 02:43:01;;;;;;;7.90;7.20;;;19.30;99.90;;;;;;5029907;28;20449;-86
2022/08/26 02:45:28;;;;;;;8.23;7.67;;;19.30;99.90;;;;;;5029470;28;20488;-86
2022/08/26 02:47:55;;;;;;;8.23;7.63;;;19.30;99.90;;;;;;5029406;28;20452;-86
2022/08/26 02:50:22;;;;;;;8.10;7.50;;;19.20;99.90;;;;;;5029316;28;20494;-86
2022/08/26 02:52:49;;;;;;;7.80;7.20;;;19.20;99.90;;;;;;5029176;28;20457;-85
2022/08/26 02:55:16;;;;;;;8.83;8.13;;;19.20;99.90;;;;;;5021445;28;20481;-85
2022/08/26 02:57:43;;;;;;;8.30;7.70;;;19.20;99.90;;;;;;5019474;28;20457;-86
2022/08/26 03:00:14;;;;;;;8.33;7.53;;;19.20;99.90;;;;;;5020003;28;20520;-85
2022/08/26 03:02:41;;;;;;;8.10;7.60;;;19.20;99.90;;;;;;5019727;28;20442;-85
2022/08/26 03:05:08;;;;;;;8.10;7.43;;;19.10;99.90;;;;;;5016027;28;20485;-86
2022/08/26 03:07:35;;;;;;;8.67;8.07;;;19.10;99.90;;;;;;5016160;28;20855;-85
2022/08/26 03:10:02;;;;;;;7.30;6.80;;;19.10;99.90;;;;;;5015905;28;20486;-86
2022/08/26 03:12:28;;;;;;;8.50;7.90;;;19.10;99.90;;;;;;5016235;28;20465;-85
2022/08/26 03:14:55;;;;;;;7.77;7.13;;;19.10;99.90;;;;;;5016543;28;20481;-85
2022/08/26 03:17:23;;;;;;;7.97;7.27;;;19.00;99.90;;;;;;5016011;28;20539;-85
2022/08/26 03:19:50;;;;;;;7.57;6.97;;;18.90;99.90;;;;;;5015899;28;20449;-85
2022/08/26 03:22:17;;;;;;;7.47;6.97;;;19.00;99.90;;;;;;5016332;28;20461;-85
2022/08/26 03:24:43;;;;;;;7.97;7.37;;;18.90;99.90;;;;;;5015645;28;20450;-85
2022/08/26 03:27:10;;;;;;;8.00;7.40;;;18.90;99.90;;;;;;5016049;28;20481;-86
2022/08/26 03:32:24;;;;;;;7.93;7.30;;;18.90;99.90;;;;;;5019705;28;20803;-85
2022/08/26 03:34:51;;;;;;;6.87;6.37;;;18.90;99.90;;;;;;5015944;28;20840;-85
2022/08/26 03:37:20;;;;;;;8.80;8.00;;;18.90;99.90;;;;;;5015514;28;20465;-86
2022/08/26 03:39:47;;;;;;;7.97;7.37;;;18.90;99.90;;;;;;5015206;28;20456;-84
2022/08/26 03:42:14;;;;;;;8.37;7.67;;;18.90;99.90;;;;;;5016080;28;20457;-84
2022/08/26 03:44:41;;;;;;;9.00;8.30;;;18.90;99.90;;;;;;5015228;28;20870;-85
2022/08/26 03:47:08;;;;;;;8.33;7.63;;;18.80;99.90;;;;;;5015322;28;20449;-85
2022/08/26 03:49:36;;;;;;;7.77;7.17;;;18.80;99.90;;;;;;5014574;28;20453;-85
2022/08/26 03:52:03;;;;;;;9.03;8.30;;;18.80;99.90;;;;;;5014924;28;20464;-85
2022/08/26 03:54:30;;;;;;;7.40;6.90;;;18.80;99.90;;;;;;5017624;28;20457;-85
2022/08/26 03:56:57;;;;;;;8.03;7.33;;;18.80;99.90;;;;;;5016301;28;20523;-85
2022/08/26 03:59:24;;;;;;;8.03;7.30;;;18.80;99.90;;;;;;5014903;28;20461;-85
2022/08/26 04:01:50;;;;;;;7.23;6.73;;;18.70;99.90;;;;;;5014913;28;20534;-84
2022/08/26 04:04:17;;;;;;;8.97;8.27;;;18.60;99.90;;;;;;5014867;28;20456;-85
2022/08/26 04:06:46;;;;;;;8.60;8.00;;;18.60;99.90;;;;;;5014613;28;20485;-85
2022/08/26 04:09:15;;;;;;;9.07;8.17;;;18.60;99.90;;;;;;5014553;28;20454;-85
2022/08/26 04:11:43;;;;;;;9.40;8.80;;;18.50;99.90;;;;;;5014295;28;20496;-85
2022/08/26 04:14:13;;;;;;;9.40;8.67;;;18.60;99.90;;;;;;5017674;28;20465;-85
2022/08/26 04:16:40;;;;;;;7.33;6.83;;;18.60;99.90;;;;;;5017804;28;20540;-85
2022/08/26 04:19:07;;;;;;;7.73;7.03;;;18.60;99.90;;;;;;5021590;28;20453;-85
2022/08/26 04:21:37;;;;;;;8.37;7.77;;;18.60;99.90;;;;;;5022009;28;20449;-85
2022/08/26 04:24:05;;;;;;;8.83;8.17;;;18.60;99.90;;;;;;5021700;28;20453;-84
2022/08/26 04:26:35;;;;;;;7.80;7.30;;;18.60;99.90;;;;;;5021787;28;20489;-85
2022/08/26 04:29:04;;;;;;;9.80;9.10;;;18.60;99.90;;;;;;5023991;28;20484;-86
2022/08/26 04:31:47;;;;;;;8.03;7.23;;;18.60;99.90;;;;;;5015829;28;20554;-85
2022/08/26 04:34:14;;;;;;;8.90;8.20;;;18.60;99.90;;;;;;5016044;28;20492;-86
2022/08/26 04:36:41;;;;;;;9.07;8.37;;;18.60;99.90;;;;;;5016581;28;20477;-85
2022/08/26 04:39:12;;;;;;;8.93;8.10;;;18.60;99.90;;;;;;5016195;28;20496;-86
2022/08/26 04:41:39;;;;;;;8.60;7.90;;;18.60;99.90;;;;;;5016818;28;20872;-85
2022/08/26 04:44:06;;;;;;;8.73;8.00;;;18.60;99.90;;;;;;5016879;28;20453;-85
2022/08/26 04:46:34;;;;;;;8.17;7.50;;;18.60;99.90;;;;;;5016584;28;20469;-86
2022/08/26 04:49:00;;;;;;;8.43;7.63;;;18.60;99.90;;;;;;5016854;28;20463;-85
2022/08/26 04:51:27;;;;;;;7.80;7.10;;;18.50;99.90;;;;;;5019259;28;20499;-84
2022/08/26 04:53:55;;;;;;;9.27;8.47;;;18.60;99.90;;;;;;5018019;28;20457;-85
2022/08/26 04:56:24;;;;;;;9.13;8.40;;;18.50;99.90;;;;;;5019684;28;21008;-85
2022/08/26 04:58:51;;;;;;;8.10;7.50;;;18.60;99.90;;;;;;5020494;28;20527;-85
2022/08/26 05:01:19;;;;;;;8.90;8.00;;;18.60;99.90;;;;;;5021177;28;20453;-86
2022/08/26 05:03:46;;;;;;;9.93;8.23;;;18.60;99.90;;;;;;5022616;28;20972;-85
2022/08/26 05:06:13;;;;;;;8.60;7.80;;;18.60;99.90;;;;;;5022140;28;20844;-85
2022/08/26 05:08:40;;;;;;;9.87;8.20;;;18.70;99.90;;;;;;5020154;28;20921;-86
2022/08/26 05:11:07;;;;;;;8.90;8.10;;;18.70;99.90;;;;;;5021909;28;20486;-85
2022/08/26 05:13:38;;;;;;;9.77;9.07;;;18.70;99.90;;;;;;5021730;28;20464;-86
2022/08/26 05:16:06;;;;;;;9.87;9.07;;;18.80;99.90;;;;;;5018643;28;20474;-85
2022/08/26 05:18:33;;;;;;;10.97;10.07;;;18.80;99.90;;;;;;5015784;28;20465;-86
2022/08/26 05:21:01;;;;;;;9.67;8.87;;;18.80;99.90;;;;;;5015684;28;20473;-86
2022/08/26 05:23:30;;;;;;;12.03;9.23;;;18.80;99.90;;;;;;5016263;28;20493;-85
2022/08/26 05:25:59;;;;;;;9.83;8.93;;;18.90;99.90;;;;;;5015185;28;21002;-85
2022/08/26 05:28:28;;;;;;;9.80;8.80;;;18.90;99.90;;;;;;5015071;28;21029;-86
2022/08/26 05:30:56;;;;;;;12.57;9.17;;;18.90;99.90;;;;;;5015763;28;20994;-86
2022/08/26 05:33:23;;;;;;;10.17;9.00;;;19.00;99.90;;;;;;5015632;28;20450;-85
2022/08/26 05:35:50;;;;;;;9.47;8.67;;;19.00;99.90;;;;;;5015482;28;20474;-86
2022/08/26 05:38:18;;;;;;;10.70;9.70;;;19.00;99.90;;;;;;5015002;28;20451;-85
2022/08/26 05:40:47;;;;;;;10.43;9.53;;;19.10;99.90;;;;;;5017342;28;20544;-86
2022/08/26 05:43:15;;;;;;;9.87;9.07;;;19.10;99.90;;;;;;5020465;28;20458;-86
2022/08/26 05:45:44;;;;;;;10.17;9.20;;;19.10;99.90;;;;;;5019809;28;20753;-85
2022/08/26 05:48:12;;;;;;;10.50;9.47;;;19.20;99.90;;;;;;5020152;28;20448;-85
2022/08/26 05:50:40;;;;;;;10.17;9.37;;;19.20;99.90;;;;;;5019486;28;20490;-84
2022/08/26 05:53:08;;;;;;;11.73;9.90;;;19.20;99.90;;;;;;5019882;28;20457;-85
2022/08/26 05:55:35;;;;;;;11.07;10.00;;;19.20;99.90;;;;;;5022539;28;20511;-85
2022/08/26 05:58:02;;;;;;;11.37;10.33;;;19.20;99.90;;;;;;5023880;28;20454;-86
2022/08/26 06:00:29;;;;;;;11.33;10.43;;;19.20;99.90;;;;;;5024709;28;20443;-85
2022/08/26 06:02:55;;;;;;;11.17;10.27;;;19.20;99.90;;;;;;5024902;28;20453;-85
2022/08/26 06:05:23;;;;;;;11.07;10.27;;;19.10;99.90;;;;;;5023644;28;20485;-86
2022/08/26 06:10:36;;;;;;;12.87;10.43;;;19.10;99.90;;;;;;5023629;28;20600;-85
2022/08/26 06:13:03;;;;;;;9.33;8.63;;;19.20;99.90;;;;;;5024045;28;20458;-85
2022/08/26 06:15:30;;;;;;;11.47;10.50;;;19.20;99.90;;;;;;5022711;28;20478;-85
2022/08/26 06:17:57;;;;;;;11.07;9.97;;;19.30;99.90;;;;;;5023904;28;20963;-85
2022/08/26 06:20:25;;;;;;;12.73;10.07;;;19.30;99.90;;;;;;5024364;28;20447;-86
2022/08/26 06:25:38;;;;;;;11.43;10.33;;;19.40;99.90;;;;;;5019275;28;20468;-86
2022/08/26 06:28:05;;;;;;;10.20;9.20;;;19.50;99.90;;;;;;5019667;28;20454;-86
2022/08/26 06:30:32;;;;;;;10.53;9.60;;;19.50;99.90;;;;;;5020077;28;20491;-85
2022/08/26 06:32:59;;;;;;;10.60;9.47;;;19.60;99.90;;;;;;5019549;28;20454;-86
2022/08/26 06:35:27;;;;;;;11.07;10.07;;;19.60;99.90;;;;;;5018936;28;20471;-85
2022/08/26 06:37:55;;;;;;;10.67;9.87;;;19.70;99.90;;;;;;5023631;28;20454;-85
2022/08/26 06:40:23;;;;;;;11.93;10.10;;;19.80;99.90;;;;;;5023610;28;20454;-85
2022/08/26 06:42:50;;;;;;;12.80;9.17;;;19.80;99.90;;;;;;5021882;28;20500;-84
2022/08/26 06:45:17;;;;;;;11.53;10.53;;;20.00;99.90;;;;;;5022901;28;20467;-84
2022/08/26 06:47:43;;;;;;;90.00;80.40;;;20.00;99.90;;;;;;5021341;28;20447;-86
2022/08/26 06:50:10;;;;;;;20.97;18.70;;;20.10;99.90;;;;;;5021975;28;20470;-85
2022/08/26 06:52:41;;;;;;;34.37;31.30;;;20.30;99.90;;;;;;5020213;28;20490;-84
2022/08/26 06:55:08;;;;;;;9.67;8.87;;;20.40;99.90;;;;;;5018278;28;20471;-84
2022/08/26 06:57:37;;;;;;;9.87;9.17;;;20.50;99.90;;;;;;5018789;28;20452;-83
2022/08/26 07:00:05;;;;;;;8.83;8.10;;;20.60;99.90;;;;;;5019276;28;20917;-83
2022/08/26 07:02:32;;;;;;;9.77;8.87;;;20.80;99.90;;;;;;5020687;28;20730;-84
2022/08/26 07:04:59;;;;;;;9.47;8.63;;;21.00;99.90;;;;;;5020606;28;20471;-84
2022/08/26 07:07:25;;;;;;;10.10;9.30;;;21.10;99.90;;;;;;5018514;28;20455;-83
2022/08/26 07:09:54;;;;;;;21.87;19.63;;;21.20;99.90;;;;;;5019786;28;20448;-84
2022/08/26 07:12:21;;;;;;;10.17;9.37;;;21.40;99.90;;;;;;5019038;28;20495;-83
2022/08/26 07:14:48;;;;;;;15.20;14.10;;;21.50;99.90;;;;;;5019484;28;20454;-85
2022/08/26 07:17:15;;;;;;;9.47;8.77;;;21.70;99.90;;;;;;5020213;28;20481;-81
2022/08/26 07:19:41;;;;;;;8.63;7.93;;;21.80;99.90;;;;;;5028718;28;20450;-83
2022/08/26 07:22:08;;;;;;;8.47;7.73;;;22.00;99.90;;;;;;5030202;28;20451;-82
2022/08/26 07:24:37;;;;;;;8.90;8.00;;;22.10;99.90;;;;;;5030478;28;20454;-83
2022/08/26 07:38:29;;;;;;;9.90;8.97;;;22.70;99.90;;;;;;4998037;28;20414;-83
2022/08/26 07:50:15;;;;;;;31.83;29.17;;;23.20;99.90;;;;;;3160443;26;20526;-84
2022/08/26 08:02:49;;;;;;;10.17;9.17;;;23.60;99.90;;;;;;5043823;22;20520;-85
2022/08/26 08:05:20;;;;;;;12.33;8.50;;;23.70;99.90;;;;;;5021111;28;20462;-83
2022/08/26 08:07:47;;;;;;;9.93;9.13;;;23.70;99.90;;;;;;5019051;28;20889;-85
2022/08/26 08:10:16;;;;;;;9.40;8.00;;;23.80;99.90;;;;;;5019617;28;20465;-85
2022/08/26 08:12:43;;;;;;;8.80;8.10;;;23.80;99.90;;;;;;5017821;28;20470;-85
2022/08/26 08:15:12;;;;;;;12.10;7.77;;;23.90;99.90;;;;;;5017238;28;20790;-85
2022/08/26 08:17:38;;;;;;;17.77;15.97;;;23.90;99.90;;;;;;5017520;28;20896;-85
2022/08/26 08:20:08;;;;;;;11.90;9.50;;;23.90;99.90;;;;;;5018957;28;20458;-84
2022/08/26 08:22:35;;;;;;;11.83;9.63;;;24.00;99.90;;;;;;5018650;28;20548;-85
2022/08/26 08:25:01;;;;;;;9.43;8.50;;;24.10;99.90;;;;;;5016872;28;20450;-83
2022/08/26 08:27:28;;;;;;;10.73;9.20;;;24.10;99.90;;;;;;5026424;28;20474;-83
2022/08/26 08:29:55;;;;;;;11.43;8.70;;;24.20;99.90;;;;;;5025541;28;20450;-85
2022/08/26 08:32:23;;;;;;;16.23;10.67;;;24.30;99.90;;;;;;5018532;28;20845;-83
2022/08/26 08:34:50;;;;;;;19.60;15.30;;;24.30;99.90;;;;;;5017494;28;20939;-87
2022/08/26 08:37:18;;;;;;;19.93;11.90;;;24.20;99.90;;;;;;5020210;28;20461;-86
2022/08/26 08:39:44;;;;;;;12.60;11.30;;;24.30;99.90;;;;;;5022525;28;20455;-84
2022/08/26 08:42:34;;;;;;;11.07;9.97;;;24.30;99.90;;;;;;5021959;28;20498;-83
2022/08/26 08:45:06;;;;;;;14.07;9.23;;;24.40;99.90;;;;;;5018557;28;20453;-85
2022/08/26 08:47:36;;;;;;;11.50;8.63;;;24.60;99.90;;;;;;5018932;28;20459;-83
2022/08/26 08:50:11;;;;;;;11.53;8.43;;;24.70;99.90;;;;;;5019519;28;20460;-84
2022/08/26 08:52:43;;;;;;;8.73;7.90;;;24.80;99.90;;;;;;5018546;28;20473;-83
2022/08/26 08:55:14;;;;;;;8.23;7.40;;;25.00;99.70;;;;;;5017736;28;20444;-85
2022/08/26 08:57:53;;;;;;;12.33;7.77;;;25.10;99.20;;;;;;5018565;28;20454;-87
2022/08/26 09:00:21;;;;;;;8.33;7.43;;;25.20;99.20;;;;;;5020116;28;20460;-87
2022/08/26 09:02:53;;;;;;;8.90;7.87;;;25.30;98.90;;;;;;5019822;28;20492;-83
2022/08/26 09:05:22;;;;;;;8.23;7.43;;;25.50;98.50;;;;;;5018341;28;20528;-84
2022/08/26 09:07:55;;;;;;;11.03;9.37;;;25.70;98.10;;;;;;5017943;28;20449;-84
2022/08/26 09:10:43;;;;;;;12.20;11.20;;;25.80;97.60;;;;;;5016918;28;20537;-83
2022/08/26 09:13:11;;;;;;;11.97;10.87;;;25.80;97.50;;;;;;5018884;28;20484;-86
2022/08/26 09:15:49;;;;;;;9.00;7.40;;;25.90;97.20;;;;;;5019492;28;20465;-84
2022/08/26 09:18:27;;;;;;;9.00;8.30;;;26.10;97.30;;;;;;5020097;28;20456;-83
2022/08/26 09:20:57;;;;;;;20.23;18.43;;;26.20;96.70;;;;;;5023244;28;20541;-86
2022/08/26 09:23:26;;;;;;;72.67;66.57;;;26.30;96.40;;;;;;5022455;28;20447;-84
2022/08/26 09:25:55;;;;;;;13.57;12.43;;;26.20;96.00;;;;;;5024237;28;20453;-83
2022/08/26 09:28:24;;;;;;;10.00;8.50;;;26.20;96.20;;;;;;5019634;28;20448;-82
2022/08/26 09:31:01;;;;;;;10.20;8.57;;;26.40;96.20;;;;;;5021117;28;20460;-83
2022/08/26 09:33:29;;;;;;;11.83;7.40;;;26.60;95.80;;;;;;5023028;28;20451;-83
2022/08/26 09:36:13;;;;;;;9.67;8.30;;;26.90;96.10;;;;;;5021525;28;20456;-82
2022/08/26 09:38:42;;;;;;;7.00;6.40;;;27.10;94.60;;;;;;5026730;28;20486;-81
2022/08/26 09:41:23;;;;;;;8.97;7.90;;;27.20;94.50;;;;;;5027401;28;20510;-81
2022/08/26 09:44:09;;;;;;;7.70;7.00;;;27.40;93.80;;;;;;5022948;28;20460;-82
2022/08/26 09:46:36;;;;;;;7.17;6.47;;;27.60;93.80;;;;;;5021585;28;20462;-82
2022/08/26 09:49:23;;;;;;;6.80;6.30;;;27.80;93.80;;;;;;5021826;28;20483;-82
2022/08/26 09:52:07;;;;;;;12.77;8.20;;;28.00;93.40;;;;;;5022481;28;20462;-82
2022/08/26 09:54:36;;;;;;;8.37;7.60;;;28.20;92.10;;;;;;5022715;28;20445;-84
2022/08/26 09:57:24;;;;;;;8.53;6.50;;;28.30;92.40;;;;;;5021080;28;20565;-84
2022/08/26 09:59:51;;;;;;;10.60;6.90;;;28.40;91.40;;;;;;5021354;28;20461;-82
2022/08/26 10:02:36;;;;;;;10.90;7.17;;;28.50;91.10;;;;;;5021833;28;20875;-82
2022/08/26 10:05:08;;;;;;;8.40;7.57;;;28.60;91.30;;;;;;5022100;28;20500;-82
2022/08/26 10:07:42;;;;;;;7.30;6.57;;;28.70;90.90;;;;;;5021676;28;20464;-82
2022/08/26 10:10:15;;;;;;;8.57;7.97;;;28.90;90.00;;;;;;5022183;28;20456;-81
2022/08/26 10:12:51;;;;;;;8.20;7.40;;;29.00;90.00;;;;;;5021777;28;20477;-81
2022/08/26 10:15:19;;;;;;;9.20;8.30;;;29.10;88.20;;;;;;5021239;28;20446;-81
2022/08/26 10:17:53;;;;;;;8.10;7.30;;;29.10;87.40;;;;;;5021302;28;20822;-81
2022/08/26 10:20:25;;;;;;;9.27;8.47;;;29.10;88.90;;;;;;5021428;28;20450;-81
2022/08/26 10:22:57;;;;;;;16.77;8.43;;;29.20;88.40;;;;;;5021626;28;20505;-82
2022/08/26 10:25:28;;;;;;;9.73;8.80;;;29.30;85.50;;;;;;5020498;28;20553;-81
2022/08/26 10:28:03;;;;;;;8.57;7.77;;;29.40;86.20;;;;;;5032257;28;20801;-81
2022/08/26 10:30:34;;;;;;;9.87;8.27;;;29.50;84.40;;;;;;5021321;28;20457;-82
2022/08/26 10:33:04;;;;;;;9.53;8.30;;;29.50;84.70;;;;;;5020613;28;20466;-83
2022/08/26 10:35:32;;;;;;;8.97;8.20;;;29.60;82.50;;;;;;5020496;28;20472;-83
2022/08/26 10:38:08;;;;;;;8.73;8.00;;;29.60;82.10;;;;;;5019945;28;20998;-83
2022/08/26 10:40:45;;;;;;;10.07;7.80;;;29.70;83.50;;;;;;5020284;28;20450;-83
2022/08/26 10:43:17;;;;;;;8.60;7.67;;;29.80;80.60;;;;;;5020343;28;20493;-84
2022/08/26 10:45:49;;;;;;;11.50;7.53;;;29.90;78.80;;;;;;5021409;28;20453;-84
2022/08/26 10:48:19;;;;;;;10.40;8.73;;;30.10;80.10;;;;;;5019405;28;20476;-83
2022/08/26 10:50:47;;;;;;;8.70;7.50;;;30.30;77.80;;;;;;5019645;28;20463;-85
2022/08/26 10:53:20;;;;;;;15.40;14.10;;;30.60;77.30;;;;;;5019302;28;20447;-85
2022/08/26 10:55:55;;;;;;;14.53;13.43;;;30.80;76.10;;;;;;5021434;28;20453;-82
2022/08/26 10:58:36;;;;;;;8.27;7.50;;;30.80;74.80;;;;;;5019484;28;20485;-83
2022/08/26 11:03:59;;;;;;;7.67;6.87;;;31.30;70.80;;;;;;5017904;28;20427;-83
2022/08/26 11:06:28;;;;;;;6.97;6.30;;;31.80;69.10;;;;;;5019106;28;20460;-81
2022/08/26 11:08:56;;;;;;;7.50;6.83;;;32.50;67.90;;;;;;5018604;28;20442;-85
2022/08/26 11:11:45;;;;;;;7.73;6.90;;;33.20;61.80;;;;;;5021532;28;20494;-81
2022/08/26 11:14:34;;;;;;;7.80;7.10;;;34.10;60.10;;;;;;5019313;28;20459;-83
2022/08/26 11:17:01;;;;;;;9.23;8.30;;;35.20;60.80;;;;;;5020250;28;20454;-82
2022/08/26 11:20:02;;;;;;;8.80;7.33;;;36.20;58.70;;;;;;5018164;28;20485;-81
2022/08/26 11:22:31;;;;;;;7.57;6.87;;;37.20;52.90;;;;;;5027235;28;20486;-82
2022/08/26 11:25:09;;;;;;;9.30;6.67;;;37.20;51.30;;;;;;5018974;28;20482;-81
2022/08/26 11:27:54;;;;;;;10.57;6.80;;;37.20;50.00;;;;;;5020882;28;20492;-81
2022/08/26 11:30:50;;;;;;;8.60;7.57;;;36.90;50.20;;;;;;5029055;28;20446;-81
2022/08/26 11:33:55;;;;;;;8.80;6.50;;;36.90;49.20;;;;;;5018479;28;20526;-81
2022/08/26 11:36:54;;;;;;;7.80;7.10;;;36.60;48.70;;;;;;5017020;28;20453;-81
2022/08/26 11:39:24;;;;;;;7.80;7.10;;;36.00;49.50;;;;;;5016613;28;20458;-82
2022/08/26 11:41:54;;;;;;;8.20;7.50;;;35.40;50.20;;;;;;5017068;28;20477;-82
2022/08/26 11:44:25;;;;;;;8.60;7.67;;;35.00;50.80;;;;;;5016764;28;20461;-82
2022/08/26 11:46:53;;;;;;;10.97;8.13;;;34.30;51.60;;;;;;5017191;28;20455;-82
2022/08/26 11:49:20;;;;;;;7.60;6.90;;;33.80;52.20;;;;;;5016767;28;20465;-81
2022/08/26 11:51:47;;;;;;;8.03;7.40;;;33.40;53.00;;;;;;5017164;28;20474;-82
2022/08/26 11:54:16;;;;;;;9.83;7.80;;;33.10;52.70;;;;;;5017066;28;20457;-81
2022/08/26 11:56:46;;;;;;;8.27;7.17;;;33.20;53.60;;;;;;5016914;28;20981;-81
2022/08/26 11:59:18;;;;;;;7.37;6.77;;;33.80;53.10;;;;;;5016391;28;20458;-81
2022/08/26 12:01:54;;;;;;;7.40;6.80;;;34.20;53.40;;;;;;5017016;28;20505;-81
2022/08/26 12:04:28;;;;;;;10.00;6.83;;;34.80;52.00;;;;;;5016893;28;20441;-81
2022/08/26 12:06:55;;;;;;;7.63;6.93;;;35.60;52.10;;;;;;5016713;28;20446;-82
2022/08/26 12:09:24;;;;;;;8.80;8.00;;;36.60;50.70;;;;;;5016975;28;20455;-82
2022/08/26 12:11:52;;;;;;;7.70;7.00;;;37.80;48.50;;;;;;5018018;28;20470;-82
2022/08/26 12:14:23;;;;;;;8.67;7.97;;;38.30;46.50;;;;;;5023532;28;20450;-81
2022/08/26 12:16:53;;;;;;;10.47;9.27;;;38.00;46.80;;;;;;5026699;28;20438;-82
2022/08/26 12:19:25;;;;;;;9.60;8.13;;;37.70;46.60;;;;;;5016913;28;20496;-82
2022/08/26 12:21:55;;;;;;;10.17;9.03;;;37.20;46.60;;;;;;5016324;28;20470;-82
2022/08/26 12:24:22;;;;;;;9.87;8.90;;;36.60;47.60;;;;;;5016706;28;20454;-82
2022/08/26 12:26:50;;;;;;;9.43;8.20;;;36.20;48.30;;;;;;5017378;28;20549;-82
2022/08/26 12:29:24;;;;;;;8.73;8.03;;;35.80;48.10;;;;;;5016772;28;20823;-81
2022/08/26 12:32:07;;;;;;;8.47;7.77;;;34.90;49.20;;;;;;5017114;28;20896;-81
2022/08/26 12:34:34;;;;;;;9.67;8.70;;;34.50;50.40;;;;;;5016673;28;20442;-82
2022/08/26 12:37:01;;;;;;;8.10;7.30;;;34.30;51.20;;;;;;5016091;28;20465;-82
2022/08/26 12:39:29;;;;;;;8.10;7.37;;;34.30;52.70;;;;;;5016361;28;20465;-82
2022/08/26 12:41:57;;;;;;;8.60;7.90;;;35.00;51.70;;;;;;5016194;28;20474;-81
2022/08/26 12:44:43;;;;;;;8.20;7.40;;;36.00;48.80;;;;;;5016457;28;20458;-82
2022/08/26 12:47:24;;;;;;;7.40;6.70;;;37.00;47.20;;;;;;5016896;28;20434;-82
2022/08/26 12:50:01;;;;;;;10.07;7.37;;;37.60;45.40;;;;;;5015732;28;20946;-82
2022/08/26 12:52:31;;;;;;;7.87;7.10;;;37.10;45.00;;;;;;5016383;28;20477;-82
2022/08/26 12:54:59;;;;;;;8.33;7.60;;;37.30;45.70;;;;;;5016266;28;20476;-82
2022/08/26 12:57:29;;;;;;;7.57;7.00;;;37.70;44.70;;;;;;5015948;28;20449;-82
2022/08/26 13:00:33;;;;;;;8.80;7.10;;;38.30;44.50;;;;;;5015665;28;20803;-82
2022/08/26 13:03:02;;;;;;;7.13;6.27;;;38.40;44.10;;;;;;5015700;28;20502;-82
2022/08/26 13:05:33;;;;;;;11.43;8.77;;;38.20;43.60;;;;;;5015805;28;20446;-82
2022/08/26 13:08:15;;;;;;;9.87;8.97;;;38.00;44.50;;;;;;5019213;28;20462;-81
2022/08/26 13:10:45;;;;;;;9.53;8.73;;;37.00;45.20;;;;;;5022736;28;20450;-82
2022/08/26 13:13:12;;;;;;;11.10;9.37;;;36.30;47.10;;;;;;5020187;28;20466;-82
2022/08/26 13:15:39;;;;;;;8.87;8.07;;;35.80;48.30;;;;;;5020078;28;20457;-82
2022/08/26 13:18:07;;;;;;;9.53;8.57;;;35.10;48.30;;;;;;5019545;28;20519;-82
2022/08/26 13:20:34;;;;;;;12.80;8.77;;;34.60;49.90;;;;;;5019458;28;20474;-81
2022/08/26 13:23:01;;;;;;;13.23;8.67;;;34.30;51.30;;;;;;5019413;28;20496;-82
2022/08/26 13:25:28;;;;;;;10.80;9.03;;;33.90;52.10;;;;;;5019408;28;20914;-82
2022/08/26 13:27:55;;;;;;;14.23;8.37;;;33.70;52.70;;;;;;5019293;28;20497;-81
2022/08/26 13:30:22;;;;;;;9.50;8.50;;;33.20;51.90;;;;;;5019607;28;20454;-81
2022/08/26 13:32:50;;;;;;;8.43;7.67;;;33.20;53.00;;;;;;5027387;28;20529;-81
2022/08/26 13:35:18;;;;;;;9.80;8.70;;;33.10;53.60;;;;;;5029190;28;20452;-81
2022/08/26 13:37:44;;;;;;;9.27;8.37;;;33.10;54.60;;;;;;5019964;28;20453;-82
2022/08/26 13:40:11;;;;;;;10.00;8.73;;;33.20;55.10;;;;;;5019238;28;20838;-81